Kedon, Russia
Current Conditions -  °F | °C
As of 9:30 PM on Monday 22 Dec 2014 (Local Time) from UHMM Reporting Station
Overcast Overcast  
Wind Chill:   Ceiling: 10000
Heat Index:   Visibility: 6mi
Dew Point: -4°   Wind: 0mph
Humidity: 72%   Direction: NA
Pressure: 29.56"   Gusts: NA
Location:  64°N, 158.92°E
Report Text: UHMM 221030Z 00000MPS 9999 OVC100 M16/M20 Q1001 NOSIG RMKQFE736 88450245
Loading
Personal Weather Stations






























Interactive Weather Map New forecast layout! Learn more

10-Day Weather Forecast

Advertisements
Track Severe Weather on mobile